Aviation Digital Data Service (ADDS)

Output produced by METARs form (1907 UTC 24 April 2014)
found at http://aviationweather.gov/adds/metars/
 
KMHT 241725Z 2418/2518 32018G32KT P6SM FEW060 
     FM250000 32014G25KT P6SM FEW250 
     FM250400 32008KT P6SM SKC 
     FM251700 28004KT P6SM SCT150